sensor_id;sensor_type;location;lat;lon;timestamp;pressure;altitude;pressure_sealevel;temperature;humidity
70053;BME280;57398;52.032;4.376;2023-04-16T00:02:41;103106.34;;;7.27;100.00
70053;BME280;57398;52.032;4.376;2023-04-16T00:05:29;103094.78;;;7.31;100.00
70053;BME280;57398;52.032;4.376;2023-04-16T00:08:19;103086.47;;;7.27;100.00
70053;BME280;57398;52.032;4.376;2023-04-16T00:11:10;103097.50;;;7.29;100.00
70053;BME280;57398;52.032;4.376;2023-04-16T00:13:58;103103.63;;;7.28;100.00
70053;BME280;57398;52.032;4.376;2023-04-16T00:16:46;103185.28;;;7.31;100.00
70053;BME280;57398;52.032;4.376;2023-04-16T00:19:35;103184.59;;;7.29;100.00
70053;BME280;57398;52.032;4.376;2023-04-16T00:22:24;103189.22;;;7.25;100.00
70053;BME280;57398;52.032;4.376;2023-04-16T00:25:14;103201.31;;;7.25;100.00
70053;BME280;57398;52.032;4.376;2023-04-16T00:28:03;103192.47;;;7.27;100.00
70053;BME280;57398;52.032;4.376;2023-04-16T00:30:52;103188.41;;;7.25;100.00
70053;BME280;57398;52.032;4.376;2023-04-16T00:33:40;103169.50;;;7.24;100.00
70053;BME280;57398;52.032;4.376;2023-04-16T00:36:28;103164.03;;;7.27;100.00
70053;BME280;57398;52.032;4.376;2023-04-16T00:39:20;103147.84;;;7.25;100.00
70053;BME280;57398;52.032;4.376;2023-04-16T00:42:10;103150.19;;;7.28;100.00
70053;BME280;57398;52.032;4.376;2023-04-16T00:44:58;103152.88;;;7.27;100.00
70053;BME280;57398;52.032;4.376;2023-04-16T00:47:47;103152.09;;;7.26;100.00
70053;BME280;57398;52.032;4.376;2023-04-16T00:50:35;103152.75;;;7.28;100.00
70053;BME280;57398;52.032;4.376;2023-04-16T00:53:23;103161.16;;;7.30;100.00
70053;BME280;57398;52.032;4.376;2023-04-16T00:56:12;103149.88;;;7.31;100.00
70053;BME280;57398;52.032;4.376;2023-04-16T00:59:02;103143.91;;;7.31;100.00
70053;BME280;57398;52.032;4.376;2023-04-16T01:01:50;103145.00;;;7.28;100.00
70053;BME280;57398;52.032;4.376;2023-04-16T01:04:39;103152.59;;;7.30;100.00
70053;BME280;57398;52.032;4.376;2023-04-16T01:07:27;103151.50;;;7.32;100.00
70053;BME280;57398;52.032;4.376;2023-04-16T01:10:15;103151.66;;;7.31;100.00
70053;BME280;57398;52.032;4.376;2023-04-16T01:13:03;103150.56;;;7.33;100.00
70053;BME280;57398;52.032;4.376;2023-04-16T01:15:53;103147.81;;;7.35;100.00
70053;BME280;57398;52.032;4.376;2023-04-16T01:18:41;103145.41;;;7.33;100.00
70053;BME280;57398;52.032;4.376;2023-04-16T01:21:31;103149.06;;;7.31;100.00
70053;BME280;57398;52.032;4.376;2023-04-16T01:24:19;103146.50;;;7.31;100.00
70053;BME280;57398;52.032;4.376;2023-04-16T01:27:07;103148.09;;;7.32;100.00
70053;BME280;57398;52.032;4.376;2023-04-16T01:29:55;103139.66;;;7.30;100.00
70053;BME280;57398;52.032;4.376;2023-04-16T01:32:43;103142.94;;;7.32;100.00
70053;BME280;57398;52.032;4.376;2023-04-16T01:35:32;103149.59;;;7.34;100.00
70053;BME280;57398;52.032;4.376;2023-04-16T01:38:21;103148.78;;;7.34;100.00
70053;BME280;57398;52.032;4.376;2023-04-16T01:41:09;103149.59;;;7.34;100.00
70053;BME280;57398;52.032;4.376;2023-04-16T01:43:57;103150.81;;;7.30;100.00
70053;BME280;57398;52.032;4.376;2023-04-16T01:46:46;103145.81;;;7.29;100.00
70053;BME280;57398;52.032;4.376;2023-04-16T01:49:34;103146.06;;;7.26;100.00
70053;BME280;57398;52.032;4.376;2023-04-16T01:52:23;103142.81;;;7.24;100.00
70053;BME280;57398;52.032;4.376;2023-04-16T01:55:13;103139.28;;;7.25;100.00
70053;BME280;57398;52.032;4.376;2023-04-16T01:58:01;103149.50;;;7.26;100.00
70053;BME280;57398;52.032;4.376;2023-04-16T02:00:50;103132.47;;;7.24;100.00
70053;BME280;57398;52.032;4.376;2023-04-16T02:03:38;103141.47;;;7.20;100.00
70053;BME280;57398;52.032;4.376;2023-04-16T02:06:27;103144.06;;;7.20;100.00
70053;BME280;57398;52.032;4.376;2023-04-16T02:09:16;103154.53;;;7.18;100.00
70053;BME280;57398;52.032;4.376;2023-04-16T02:12:06;103154.13;;;7.23;100.00
70053;BME280;57398;52.032;4.376;2023-04-16T02:14:57;103153.72;;;7.18;100.00
70053;BME280;57398;52.032;4.376;2023-04-16T02:17:45;103153.44;;;7.21;100.00
70053;BME280;57398;52.032;4.376;2023-04-16T02:20:34;103156.16;;;7.19;100.00
70053;BME280;57398;52.032;4.376;2023-04-16T02:23:27;103151.81;;;7.20;100.00
70053;BME280;57398;52.032;4.376;2023-04-16T02:26:15;103157.50;;;7.23;100.00
70053;BME280;57398;52.032;4.376;2023-04-16T02:29:05;103162.97;;;7.20;100.00
70053;BME280;57398;52.032;4.376;2023-04-16T02:31:54;103157.66;;;7.22;100.00
70053;BME280;57398;52.032;4.376;2023-04-16T02:34:42;103154.94;;;7.23;100.00
70053;BME280;57398;52.032;4.376;2023-04-16T02:37:30;103145.81;;;7.19;100.00
70053;BME280;57398;52.032;4.376;2023-04-16T02:40:20;103154.53;;;7.18;100.00
70053;BME280;57398;52.032;4.376;2023-04-16T02:43:08;103148.41;;;7.19;100.00
70053;BME280;57398;52.032;4.376;2023-04-16T02:45:57;103152.22;;;7.15;100.00
70053;BME280;57398;52.032;4.376;2023-04-16T02:48:46;103148.41;;;7.09;100.00
70053;BME280;57398;52.032;4.376;2023-04-16T02:51:34;103151.56;;;7.13;100.00
70053;BME280;57398;52.032;4.376;2023-04-16T02:54:23;103157.25;;;7.07;100.00
70053;BME280;57398;52.032;4.376;2023-04-16T02:57:11;103151.81;;;7.10;100.00
70053;BME280;57398;52.032;4.376;2023-04-16T02:59:59;103156.97;;;7.10;100.00
70053;BME280;57398;52.032;4.376;2023-04-16T03:02:49;103171.25;;;7.14;100.00
70053;BME280;57398;52.032;4.376;2023-04-16T03:05:37;103174.13;;;7.11;100.00
70053;BME280;57398;52.032;4.376;2023-04-16T03:08:26;103165.97;;;7.06;100.00
70053;BME280;57398;52.032;4.376;2023-04-16T03:11:14;103152.09;;;7.07;100.00
70053;BME280;57398;52.032;4.376;2023-04-16T03:14:02;103147.06;;;7.05;100.00
70053;BME280;57398;52.032;4.376;2023-04-16T03:16:51;103142.84;;;7.04;100.00
70053;BME280;57398;52.032;4.376;2023-04-16T03:19:40;103149.50;;;7.07;100.00
70053;BME280;57398;52.032;4.376;2023-04-16T03:22:28;103078.13;;;7.06;100.00
70053;BME280;57398;52.032;4.376;2023-04-16T03:25:17;103074.19;;;7.02;100.00
70053;BME280;57398;52.032;4.376;2023-04-16T03:28:06;103080.84;;;6.95;100.00
70053;BME280;57398;52.032;4.376;2023-04-16T03:30:54;103080.84;;;6.95;100.00
70053;BME280;57398;52.032;4.376;2023-04-16T03:33:42;103078.28;;;6.95;100.00
70053;BME280;57398;52.032;4.376;2023-04-16T03:36:32;103067.25;;;6.92;100.00
70053;BME280;57398;52.032;4.376;2023-04-16T03:39:20;103061.41;;;6.90;100.00
70053;BME280;57398;52.032;4.376;2023-04-16T03:42:08;103161.50;;;6.88;100.00
70053;BME280;57398;52.032;4.376;2023-04-16T03:44:56;103258.06;;;6.87;100.00
70053;BME280;57398;52.032;4.376;2023-04-16T03:47:45;103203.78;;;6.87;100.00
70053;BME280;57398;52.032;4.376;2023-04-16T03:50:38;103194.78;;;6.91;100.00
70053;BME280;57398;52.032;4.376;2023-04-16T03:53:28;103130.34;;;6.90;100.00
70053;BME280;57398;52.032;4.376;2023-04-16T03:56:16;103098.38;;;6.91;100.00
70053;BME280;57398;52.032;4.376;2023-04-16T03:59:05;103043.19;;;6.92;100.00
70053;BME280;57398;52.032;4.376;2023-04-16T04:01:53;102976.16;;;6.90;100.00
70053;BME280;57398;52.032;4.376;2023-04-16T04:04:42;102968.28;;;6.92;100.00
70053;BME280;57398;52.032;4.376;2023-04-16T04:07:30;102933.72;;;6.93;100.00
70053;BME280;57398;52.032;4.376;2023-04-16T04:10:20;102865.72;;;6.92;100.00
70053;BME280;57398;52.032;4.376;2023-04-16T04:13:08;102831.72;;;6.97;100.00
70053;BME280;57398;52.032;4.376;2023-04-16T04:15:56;102824.47;;;7.01;100.00
70053;BME280;57398;52.032;4.376;2023-04-16T04:18:44;102802.97;;;7.00;100.00
70053;BME280;57398;52.032;4.376;2023-04-16T04:21:32;102799.72;;;6.98;100.00
70053;BME280;57398;52.032;4.376;2023-04-16T04:24:21;102788.28;;;7.01;100.00
70053;BME280;57398;52.032;4.376;2023-04-16T04:27:10;102779.59;;;7.02;100.00
70053;BME280;57398;52.032;4.376;2023-04-16T04:29:59;102768.16;;;7.04;100.00
70053;BME280;57398;52.032;4.376;2023-04-16T04:32:47;102759.59;;;7.04;100.00
70053;BME280;57398;52.032;4.376;2023-04-16T04:35:35;102756.34;;;7.02;100.00
70053;BME280;57398;52.032;4.376;2023-04-16T04:38:23;102751.16;;;7.02;100.00
70053;BME280;57398;52.032;4.376;2023-04-16T04:41:12;102733.88;;;7.02;100.00
70053;BME280;57398;52.032;4.376;2023-04-16T04:44:02;102696.56;;;6.97;100.00
70053;BME280;57398;52.032;4.376;2023-04-16T04:46:50;102692.19;;;6.97;100.00
70053;BME280;57398;52.032;4.376;2023-04-16T04:49:38;102668.63;;;7.00;100.00
70053;BME280;57398;52.032;4.376;2023-04-16T04:52:26;102656.69;;;6.99;100.00
70053;BME280;57398;52.032;4.376;2023-04-16T04:55:15;102649.59;;;7.01;100.00
70053;BME280;57398;52.032;4.376;2023-04-16T04:58:03;102638.59;;;6.99;100.00
70053;BME280;57398;52.032;4.376;2023-04-16T05:00:53;102639.41;;;7.00;100.00
70053;BME280;57398;52.032;4.376;2023-04-16T05:03:41;102632.31;;;7.02;100.00
70053;BME280;57398;52.032;4.376;2023-04-16T05:06:30;102629.72;;;7.02;100.00
70053;BME280;57398;52.032;4.376;2023-04-16T05:09:18;102621.97;;;7.02;100.00
70053;BME280;57398;52.032;4.376;2023-04-16T05:12:06;102610.00;;;7.01;100.00
70053;BME280;57398;52.032;4.376;2023-04-16T05:14:54;102598.72;;;7.02;100.00
70053;BME280;57398;52.032;4.376;2023-04-16T05:17:44;102605.00;;;6.99;100.00
70053;BME280;57398;52.032;4.376;2023-04-16T05:20:32;102604.69;;;7.02;100.00
70053;BME280;57398;52.032;4.376;2023-04-16T05:23:20;102595.69;;;7.06;100.00
70053;BME280;57398;52.032;4.376;2023-04-16T05:26:09;102604.38;;;7.05;100.00
70053;BME280;57398;52.032;4.376;2023-04-16T05:28:57;102596.63;;;7.05;100.00
70053;BME280;57398;52.032;4.376;2023-04-16T05:31:45;102606.97;;;7.05;100.00
70053;BME280;57398;52.032;4.376;2023-04-16T05:34:34;102608.59;;;7.06;100.00
70053;BME280;57398;52.032;4.376;2023-04-16T05:37:22;102601.00;;;7.05;100.00
70053;BME280;57398;52.032;4.376;2023-04-16T05:40:12;102610.75;;;7.11;100.00
70053;BME280;57398;52.032;4.376;2023-04-16T05:43:00;102597.81;;;7.11;100.00
70053;BME280;57398;52.032;4.376;2023-04-16T05:45:49;102598.75;;;7.10;100.00
70053;BME280;57398;52.032;4.376;2023-04-16T05:48:37;102582.97;;;7.13;100.00
70053;BME280;57398;52.032;4.376;2023-04-16T05:51:27;102574.56;;;7.11;100.00
70053;BME280;57398;52.032;4.376;2023-04-16T05:54:15;102576.81;;;7.14;100.00
70053;BME280;57398;52.032;4.376;2023-04-16T05:57:03;102569.06;;;7.14;100.00
70053;BME280;57398;52.032;4.376;2023-04-16T05:59:52;102570.53;;;7.17;100.00
70053;BME280;57398;52.032;4.376;2023-04-16T06:02:41;102559.53;;;7.14;100.00
70053;BME280;57398;52.032;4.376;2023-04-16T06:05:29;102566.03;;;7.19;100.00
70053;BME280;57398;52.032;4.376;2023-04-16T06:08:19;102561.66;;;7.19;100.00
70053;BME280;57398;52.032;4.376;2023-04-16T06:11:08;102564.25;;;7.19;100.00
70053;BME280;57398;52.032;4.376;2023-04-16T06:13:56;102562.63;;;7.18;100.00
70053;BME280;57398;52.032;4.376;2023-04-16T06:16:44;102563.44;;;7.19;100.00
70053;BME280;57398;52.032;4.376;2023-04-16T06:19:33;102559.59;;;7.23;100.00
70053;BME280;57398;52.032;4.376;2023-04-16T06:22:21;102567.03;;;7.26;100.00
70053;BME280;57398;52.032;4.376;2023-04-16T06:25:11;102560.41;;;7.23;100.00
70053;BME280;57398;52.032;4.376;2023-04-16T06:27:59;102566.09;;;7.27;100.00
70053;BME280;57398;52.032;4.376;2023-04-16T06:30:47;102565.28;;;7.26;100.00
70053;BME280;57398;52.032;4.376;2023-04-16T06:33:35;102560.56;;;7.22;100.00
70053;BME280;57398;52.032;4.376;2023-04-16T06:36:23;102562.50;;;7.20;100.00
70053;BME280;57398;52.032;4.376;2023-04-16T06:39:21;102563.44;;;7.19;100.00
70053;BME280;57398;52.032;4.376;2023-04-16T06:42:11;102554.38;;;7.14;100.00
70053;BME280;57398;52.032;4.376;2023-04-16T06:44:59;102527.72;;;7.14;100.00
70053;BME280;57398;52.032;4.376;2023-04-16T06:47:47;102523.53;;;7.13;100.00
70053;BME280;57398;52.032;4.376;2023-04-16T06:50:36;102520.44;;;7.09;100.00
70053;BME280;57398;52.032;4.376;2023-04-16T06:53:25;102510.63;;;7.13;100.00
70053;BME280;57398;52.032;4.376;2023-04-16T06:56:13;102503.00;;;7.11;100.00
70053;BME280;57398;52.032;4.376;2023-04-16T06:59:03;102505.72;;;7.10;100.00
70053;BME280;57398;52.032;4.376;2023-04-16T07:01:52;102484.56;;;7.06;100.00
70053;BME280;57398;52.032;4.376;2023-04-16T07:04:40;102473.63;;;7.12;100.00
70053;BME280;57398;52.032;4.376;2023-04-16T07:07:28;102487.34;;;7.13;100.00
70053;BME280;57398;52.032;4.376;2023-04-16T07:10:20;102480.88;;;7.09;100.00
70053;BME280;57398;52.032;4.376;2023-04-16T07:13:08;102469.22;;;7.05;100.00
70053;BME280;57398;52.032;4.376;2023-04-16T07:15:58;102445.34;;;7.11;100.00
70053;BME280;57398;52.032;4.376;2023-04-16T07:18:47;102379.78;;;7.12;100.00
70053;BME280;57398;52.032;4.376;2023-04-16T07:21:35;102325.69;;;7.10;100.00
70053;BME280;57398;52.032;4.376;2023-04-16T07:24:24;102315.53;;;7.17;100.00
70053;BME280;57398;52.032;4.376;2023-04-16T07:27:20;102304.84;;;7.20;100.00
70053;BME280;57398;52.032;4.376;2023-04-16T07:30:09;102303.06;;;7.12;100.00
70053;BME280;57398;52.032;4.376;2023-04-16T07:33:01;102289.81;;;7.07;100.00
70053;BME280;57398;52.032;4.376;2023-04-16T07:35:50;102282.41;;;7.12;100.00
70053;BME280;57398;52.032;4.376;2023-04-16T07:38:40;102285.78;;;7.13;100.00
70053;BME280;57398;52.032;4.376;2023-04-16T07:41:28;102271.91;;;7.22;100.00
70053;BME280;57398;52.032;4.376;2023-04-16T07:44:16;102253.16;;;7.20;100.00
70053;BME280;57398;52.032;4.376;2023-04-16T07:47:05;102243.97;;;7.18;100.00
70053;BME280;57398;52.032;4.376;2023-04-16T07:49:54;102253.50;;;7.25;100.00
70053;BME280;57398;52.032;4.376;2023-04-16T07:52:42;102242.84;;;7.28;100.00
70053;BME280;57398;52.032;4.376;2023-04-16T07:55:31;102235.72;;;7.30;100.00
70053;BME280;57398;52.032;4.376;2023-04-16T07:58:19;102227.47;;;7.35;100.00
70053;BME280;57398;52.032;4.376;2023-04-16T08:01:16;102224.25;;;7.41;100.00
70053;BME280;57398;52.032;4.376;2023-04-16T08:04:04;102223.44;;;7.32;100.00
70053;BME280;57398;52.032;4.376;2023-04-16T08:06:54;102208.41;;;7.44;100.00
70053;BME280;57398;52.032;4.376;2023-04-16T08:09:46;102207.28;;;7.47;100.00
70053;BME280;57398;52.032;4.376;2023-04-16T08:12:35;102211.47;;;7.40;100.00
70053;BME280;57398;52.032;4.376;2023-04-16T08:15:24;102203.56;;;7.41;100.00
70053;BME280;57398;52.032;4.376;2023-04-16T08:18:13;102195.97;;;7.40;100.00
70053;BME280;57398;52.032;4.376;2023-04-16T08:21:02;102201.28;;;7.46;100.00
70053;BME280;57398;52.032;4.376;2023-04-16T08:23:52;102194.66;;;7.52;100.00
70053;BME280;57398;52.032;4.376;2023-04-16T08:26:40;102194.66;;;7.44;100.00
70053;BME280;57398;52.032;4.376;2023-04-16T08:29:28;102190.94;;;7.46;100.00
70053;BME280;57398;52.032;4.376;2023-04-16T08:32:16;102184.81;;;7.47;100.00
70053;BME280;57398;52.032;4.376;2023-04-16T08:35:05;102183.03;;;7.48;100.00
70053;BME280;57398;52.032;4.376;2023-04-16T08:37:53;102182.53;;;7.44;100.00
70053;BME280;57398;52.032;4.376;2023-04-16T08:40:45;102171.91;;;7.47;100.00
70053;BME280;57398;52.032;4.376;2023-04-16T08:43:36;102168.78;;;7.60;100.00
70053;BME280;57398;52.032;4.376;2023-04-16T08:46:25;102173.63;;;7.63;100.00
70053;BME280;57398;52.032;4.376;2023-04-16T08:49:16;102170.06;;;7.64;100.00
70053;BME280;57398;52.032;4.376;2023-04-16T08:52:05;102166.53;;;7.65;100.00
70053;BME280;57398;52.032;4.376;2023-04-16T08:55:02;102161.00;;;7.76;100.00
70053;BME280;57398;52.032;4.376;2023-04-16T08:57:56;102169.19;;;7.88;100.00
70053;BME280;57398;52.032;4.376;2023-04-16T09:00:47;102166.28;;;7.91;100.00
70053;BME280;57398;52.032;4.376;2023-04-16T09:03:36;102167.75;;;7.86;100.00
70053;BME280;57398;52.032;4.376;2023-04-16T09:06:26;102167.28;;;7.74;100.00
70053;BME280;57398;52.032;4.376;2023-04-16T09:09:15;102165.47;;;7.83;100.00
70053;BME280;57398;52.032;4.376;2023-04-16T09:12:06;102165.84;;;7.71;100.00
70053;BME280;57398;52.032;4.376;2023-04-16T09:14:58;102169.69;;;7.84;100.00
70053;BME280;57398;52.032;4.376;2023-04-16T09:17:48;102168.13;;;7.66;100.00
70053;BME280;57398;52.032;4.376;2023-04-16T09:20:37;102163.94;;;7.65;100.00
70053;BME280;57398;52.032;4.376;2023-04-16T09:23:25;102179.47;;;7.57;100.00
70053;BME280;57398;52.032;4.376;2023-04-16T09:26:13;102168.81;;;7.52;100.00
70053;BME280;57398;52.032;4.376;2023-04-16T09:29:02;102169.44;;;7.62;100.00
70053;BME280;57398;52.032;4.376;2023-04-16T09:32:00;102175.03;;;7.74;100.00
70053;BME280;57398;52.032;4.376;2023-04-16T09:34:56;102175.53;;;7.69;100.00
70053;BME280;57398;52.032;4.376;2023-04-16T09:37:54;102180.56;;;7.63;100.00
70053;BME280;57398;52.032;4.376;2023-04-16T09:40:42;102183.81;;;7.65;100.00
70053;BME280;57398;52.032;4.376;2023-04-16T09:43:30;102175.03;;;7.74;100.00
70053;BME280;57398;52.032;4.376;2023-04-16T09:46:19;102181.06;;;7.74;100.00
70053;BME280;57398;52.032;4.376;2023-04-16T09:49:09;102173.16;;;7.68;100.00
70053;BME280;57398;52.032;4.376;2023-04-16T09:51:58;102169.72;;;7.75;100.00
70053;BME280;57398;52.032;4.376;2023-04-16T09:54:47;102174.53;;;7.87;100.00
70053;BME280;57398;52.032;4.376;2023-04-16T09:57:36;102176.03;;;7.65;100.00
70053;BME280;57398;52.032;4.376;2023-04-16T10:00:25;102180.06;;;7.84;100.00
70053;BME280;57398;52.032;4.376;2023-04-16T10:03:13;102183.13;;;7.79;100.00
70053;BME280;57398;52.032;4.376;2023-04-16T10:06:06;102185.38;;;7.82;100.00
70053;BME280;57398;52.032;4.376;2023-04-16T10:08:55;102182.88;;;7.97;100.00
70053;BME280;57398;52.032;4.376;2023-04-16T10:11:43;102184.03;;;8.03;100.00
70053;BME280;57398;52.032;4.376;2023-04-16T10:14:32;102193.44;;;7.87;100.00
70053;BME280;57398;52.032;4.376;2023-04-16T10:17:20;102192.94;;;7.92;100.00
70053;BME280;57398;52.032;4.376;2023-04-16T10:20:10;102200.56;;;7.85;100.00
70053;BME280;57398;52.032;4.376;2023-04-16T10:23:00;102199.53;;;8.03;100.00
70053;BME280;57398;52.032;4.376;2023-04-16T10:25:49;102198.59;;;7.95;100.00
70053;BME280;57398;52.032;4.376;2023-04-16T10:28:39;102210.34;;;8.14;100.00
70053;BME280;57398;52.032;4.376;2023-04-16T10:31:27;102208.88;;;8.12;100.00
70053;BME280;57398;52.032;4.376;2023-04-16T10:34:18;102206.44;;;8.18;100.00
70053;BME280;57398;52.032;4.376;2023-04-16T10:37:07;102217.66;;;8.03;100.00
70053;BME280;57398;52.032;4.376;2023-04-16T10:39:58;102223.00;;;8.01;100.00
70053;BME280;57398;52.032;4.376;2023-04-16T10:42:53;102232.69;;;7.99;100.00
70053;BME280;57398;52.032;4.376;2023-04-16T10:45:41;102225.88;;;8.06;100.00
70053;BME280;57398;52.032;4.376;2023-04-16T10:48:30;102236.72;;;8.02;100.00
70053;BME280;57398;52.032;4.376;2023-04-16T10:51:35;102236.56;;;8.11;100.00
70053;BME280;57398;52.032;4.376;2023-04-16T10:54:24;102237.84;;;8.15;100.00
70053;BME280;57398;52.032;4.376;2023-04-16T10:57:16;102236.66;;;8.26;100.00
70053;BME280;57398;52.032;4.376;2023-04-16T11:00:21;102254.69;;;8.11;100.00
70053;BME280;57398;52.032;4.376;2023-04-16T11:03:09;102260.00;;;8.10;100.00
70053;BME280;57398;52.032;4.376;2023-04-16T11:06:11;102257.91;;;8.13;100.00
70053;BME280;57398;52.032;4.376;2023-04-16T11:09:01;102255.41;;;8.28;100.00
70053;BME280;57398;52.032;4.376;2023-04-16T11:11:51;102264.66;;;8.23;100.00
70053;BME280;57398;52.032;4.376;2023-04-16T11:14:42;102252.81;;;8.28;100.00
70053;BME280;57398;52.032;4.376;2023-04-16T11:17:32;102258.91;;;8.52;100.00
70053;BME280;57398;52.032;4.376;2023-04-16T11:20:27;102264.59;;;8.39;100.00
70053;BME280;57398;52.032;4.376;2023-04-16T11:23:17;102268.66;;;8.33;100.00
70053;BME280;57398;52.032;4.376;2023-04-16T11:26:19;102278.00;;;8.51;100.00
70053;BME280;57398;52.032;4.376;2023-04-16T11:29:13;102282.69;;;8.55;100.00
70053;BME280;57398;52.032;4.376;2023-04-16T11:32:02;102275.78;;;8.31;100.00
70053;BME280;57398;52.032;4.376;2023-04-16T11:34:55;102282.41;;;8.42;100.00
70053;BME280;57398;52.032;4.376;2023-04-16T11:37:44;102271.56;;;8.38;100.00
70053;BME280;57398;52.032;4.376;2023-04-16T11:40:33;102285.31;;;8.39;100.00
70053;BME280;57398;52.032;4.376;2023-04-16T11:43:21;102294.69;;;8.48;100.00
70053;BME280;57398;52.032;4.376;2023-04-16T11:46:09;102303.13;;;8.50;100.00
70053;BME280;57398;52.032;4.376;2023-04-16T11:49:14;102300.84;;;8.47;100.00
70053;BME280;57398;52.032;4.376;2023-04-16T11:52:03;102290.94;;;8.59;100.00
70053;BME280;57398;52.032;4.376;2023-04-16T11:54:52;102303.84;;;8.67;100.00
70053;BME280;57398;52.032;4.376;2023-04-16T11:57:40;102308.28;;;8.50;100.00
70053;BME280;57398;52.032;4.376;2023-04-16T12:00:33;102321.69;;;8.54;100.00
70053;BME280;57398;52.032;4.376;2023-04-16T12:03:36;102318.53;;;8.27;100.00
70053;BME280;57398;52.032;4.376;2023-04-16T12:06:27;102311.06;;;8.41;100.00
70053;BME280;57398;52.032;4.376;2023-04-16T12:09:21;102309.09;;;8.43;100.00
70053;BME280;57398;52.032;4.376;2023-04-16T12:12:25;102307.34;;;8.35;100.00
70053;BME280;57398;52.032;4.376;2023-04-16T12:15:16;102305.41;;;8.29;100.00
70053;BME280;57398;52.032;4.376;2023-04-16T12:18:08;102296.63;;;8.38;100.00
70053;BME280;57398;52.032;4.376;2023-04-16T12:20:56;102298.88;;;8.49;100.00
70053;BME280;57398;52.032;4.376;2023-04-16T12:23:52;102293.75;;;8.41;100.00
70053;BME280;57398;52.032;4.376;2023-04-16T12:26:41;102298.56;;;8.52;100.00
70053;BME280;57398;52.032;4.376;2023-04-16T12:29:29;102290.97;;;8.51;100.00
70053;BME280;57398;52.032;4.376;2023-04-16T12:32:21;102298.09;;;8.49;100.00
70053;BME280;57398;52.032;4.376;2023-04-16T12:35:10;102302.50;;;8.32;100.00
70053;BME280;57398;52.032;4.376;2023-04-16T12:37:59;102288.78;;;8.23;100.00
70053;BME280;57398;52.032;4.376;2023-04-16T12:40:50;102285.00;;;8.42;100.00
70053;BME280;57398;52.032;4.376;2023-04-16T12:43:45;102273.50;;;8.45;100.00
70053;BME280;57398;52.032;4.376;2023-04-16T12:46:34;102271.84;;;8.52;100.00
70053;BME280;57398;52.032;4.376;2023-04-16T12:49:24;102272.75;;;8.67;100.00
70053;BME280;57398;52.032;4.376;2023-04-16T12:52:12;102279.56;;;8.68;100.00
70053;BME280;57398;52.032;4.376;2023-04-16T12:55:01;102273.31;;;8.54;100.00
70053;BME280;57398;52.032;4.376;2023-04-16T12:57:51;102267.41;;;8.69;100.00
70053;BME280;57398;52.032;4.376;2023-04-16T13:00:39;102276.59;;;8.40;100.00
70053;BME280;57398;52.032;4.376;2023-04-16T13:03:28;102277.72;;;8.46;100.00
70053;BME280;57398;52.032;4.376;2023-04-16T13:06:17;102265.84;;;8.59;100.00
70053;BME280;57398;52.032;4.376;2023-04-16T13:09:07;102271.34;;;8.56;100.00
70053;BME280;57398;52.032;4.376;2023-04-16T13:11:56;102271.22;;;8.50;100.00
70053;BME280;57398;52.032;4.376;2023-04-16T13:14:46;102265.84;;;8.59;100.00
70053;BME280;57398;52.032;4.376;2023-04-16T13:17:34;102269.75;;;8.55;100.00
70053;BME280;57398;52.032;4.376;2023-04-16T13:20:22;102268.59;;;8.58;100.00
70053;BME280;57398;52.032;4.376;2023-04-16T13:23:11;102275.06;;;8.62;100.00
70053;BME280;57398;52.032;4.376;2023-04-16T13:25:59;102273.47;;;8.84;100.00
70053;BME280;57398;52.032;4.376;2023-04-16T13:28:50;102276.47;;;8.73;100.00
70053;BME280;57398;52.032;4.376;2023-04-16T13:31:39;102281.16;;;8.69;100.00
70053;BME280;57398;52.032;4.376;2023-04-16T13:34:27;102276.63;;;8.71;100.00
70053;BME280;57398;52.032;4.376;2023-04-16T13:37:15;102272.91;;;8.66;100.00
70053;BME280;57398;52.032;4.376;2023-04-16T13:40:05;102281.03;;;8.63;100.00
70053;BME280;57398;52.032;4.376;2023-04-16T13:42:54;102276.72;;;8.55;100.00
70053;BME280;57398;52.032;4.376;2023-04-16T13:45:42;102272.69;;;8.44;100.00
70053;BME280;57398;52.032;4.376;2023-04-16T13:48:31;102275.25;;;8.52;100.00
70053;BME280;57398;52.032;4.376;2023-04-16T13:51:20;102270.97;;;8.68;100.00
70053;BME280;57398;52.032;4.376;2023-04-16T13:54:10;102270.94;;;8.76;100.00
70053;BME280;57398;52.032;4.376;2023-04-16T13:56:58;102276.00;;;8.92;100.00
70053;BME280;57398;52.032;4.376;2023-04-16T13:59:49;102285.06;;;8.96;100.00
70053;BME280;57398;52.032;4.376;2023-04-16T14:02:38;102284.78;;;8.91;100.00
70053;BME280;57398;52.032;4.376;2023-04-16T14:05:28;102293.19;;;8.93;100.00
70053;BME280;57398;52.032;4.376;2023-04-16T14:08:18;102300.66;;;8.88;100.00
70053;BME280;57398;52.032;4.376;2023-04-16T14:11:09;102305.25;;;8.78;100.00
70053;BME280;57398;52.032;4.376;2023-04-16T14:13:58;102298.38;;;8.62;100.00
70053;BME280;57398;52.032;4.376;2023-04-16T14:16:46;102299.22;;;8.54;100.00
70053;BME280;57398;52.032;4.376;2023-04-16T14:19:34;102288.72;;;8.48;100.00
70053;BME280;57398;52.032;4.376;2023-04-16T14:22:24;102292.69;;;8.58;100.00
70053;BME280;57398;52.032;4.376;2023-04-16T14:25:12;102285.75;;;8.59;100.00
70053;BME280;57398;52.032;4.376;2023-04-16T14:28:01;102282.81;;;8.62;100.00
70053;BME280;57398;52.032;4.376;2023-04-16T14:30:49;102284.78;;;8.52;100.00
70053;BME280;57398;52.032;4.376;2023-04-16T14:33:37;102283.06;;;8.44;100.00
70053;BME280;57398;52.032;4.376;2023-04-16T14:36:27;102280.31;;;8.46;100.00
70053;BME280;57398;52.032;4.376;2023-04-16T14:39:16;102270.53;;;8.56;100.00
70053;BME280;57398;52.032;4.376;2023-04-16T14:42:04;102273.75;;;8.58;100.00
70053;BME280;57398;52.032;4.376;2023-04-16T14:44:52;102266.41;;;8.70;100.00
70053;BME280;57398;52.032;4.376;2023-04-16T14:47:41;102274.56;;;8.58;100.00